Argyle, Missouri
Current Conditions -  °F | °C
As of 6:53 AM on Friday 28 Nov 2014 (Local Time) from KVIH Reporting Station
Clear Clear  
Wind Chill: 22°   Ceiling: Unl
Heat Index: 32°   Visibility: 10mi
Dew Point: 24°   Wind: 14mph
Humidity: 73%   Direction: 170°S
Pressure: 30.15"   Gusts: NA
Location:  38.29°N, 92.03°W
Report Text: KVIH 281253Z AUTO 17012KT 10SM CLR 00/M04 A3015 RMK AO2 SLP220 T00001044 $
Loading
Personal Weather Stations






























Interactive Weather Map New forecast layout! Learn more

10-Day Weather Forecast

Advertisements
Track Severe Weather on mobile